sensor_id;sensor_type;location;lat;lon;timestamp;temperature;humidity
5560;DHT22;2803;47.916;8.074;2022-08-27T00:00:39;22.50;99.90
5560;DHT22;2803;47.916;8.074;2022-08-27T00:03:07;22.40;99.90
5560;DHT22;2803;47.916;8.074;2022-08-27T00:05:33;22.50;99.90
5560;DHT22;2803;47.916;8.074;2022-08-27T00:08:02;22.50;99.90
5560;DHT22;2803;47.916;8.074;2022-08-27T00:10:28;22.50;99.90
5560;DHT22;2803;47.916;8.074;2022-08-27T00:12:55;22.60;99.90
5560;DHT22;2803;47.916;8.074;2022-08-27T00:15:22;22.60;99.90
5560;DHT22;2803;47.916;8.074;2022-08-27T00:17:50;22.60;99.90
5560;DHT22;2803;47.916;8.074;2022-08-27T00:20:20;22.60;99.90
5560;DHT22;2803;47.916;8.074;2022-08-27T00:22:47;22.60;99.90
5560;DHT22;2803;47.916;8.074;2022-08-27T00:25:15;22.60;99.90
5560;DHT22;2803;47.916;8.074;2022-08-27T00:27:41;22.50;99.90
5560;DHT22;2803;47.916;8.074;2022-08-27T00:30:11;22.50;99.90
5560;DHT22;2803;47.916;8.074;2022-08-27T00:32:38;22.50;99.90
5560;DHT22;2803;47.916;8.074;2022-08-27T00:35:05;22.50;99.90
5560;DHT22;2803;47.916;8.074;2022-08-27T00:37:33;22.50;99.90
5560;DHT22;2803;47.916;8.074;2022-08-27T00:40:00;22.50;99.90
5560;DHT22;2803;47.916;8.074;2022-08-27T00:42:27;22.50;99.90
5560;DHT22;2803;47.916;8.074;2022-08-27T00:44:55;22.50;99.90
5560;DHT22;2803;47.916;8.074;2022-08-27T00:47:24;22.50;99.90
5560;DHT22;2803;47.916;8.074;2022-08-27T00:49:53;22.60;99.90
5560;DHT22;2803;47.916;8.074;2022-08-27T00:52:25;22.60;99.90
5560;DHT22;2803;47.916;8.074;2022-08-27T00:54:57;22.70;99.90
5560;DHT22;2803;47.916;8.074;2022-08-27T00:57:25;22.70;99.90
5560;DHT22;2803;47.916;8.074;2022-08-27T00:59:53;22.60;99.90
5560;DHT22;2803;47.916;8.074;2022-08-27T01:02:19;22.60;99.90
5560;DHT22;2803;47.916;8.074;2022-08-27T01:04:53;22.60;99.90
5560;DHT22;2803;47.916;8.074;2022-08-27T01:07:21;22.70;99.90
5560;DHT22;2803;47.916;8.074;2022-08-27T01:09:49;22.70;99.90
5560;DHT22;2803;47.916;8.074;2022-08-27T01:12:18;22.70;99.90
5560;DHT22;2803;47.916;8.074;2022-08-27T01:14:45;22.70;99.90
5560;DHT22;2803;47.916;8.074;2022-08-27T01:17:13;22.50;99.90
5560;DHT22;2803;47.916;8.074;2022-08-27T01:19:44;22.70;99.90
5560;DHT22;2803;47.916;8.074;2022-08-27T01:22:23;22.70;99.90
5560;DHT22;2803;47.916;8.074;2022-08-27T01:24:55;22.70;99.90
5560;DHT22;2803;47.916;8.074;2022-08-27T01:27:26;22.70;99.90
5560;DHT22;2803;47.916;8.074;2022-08-27T01:29:53;22.20;99.90
5560;DHT22;2803;47.916;8.074;2022-08-27T01:32:22;22.20;99.90
5560;DHT22;2803;47.916;8.074;2022-08-27T01:34:49;22.20;99.90
5560;DHT22;2803;47.916;8.074;2022-08-27T01:37:17;22.00;99.90
5560;DHT22;2803;47.916;8.074;2022-08-27T01:39:44;22.10;99.90
5560;DHT22;2803;47.916;8.074;2022-08-27T01:42:16;22.20;99.90
5560;DHT22;2803;47.916;8.074;2022-08-27T01:44:45;22.00;99.90
5560;DHT22;2803;47.916;8.074;2022-08-27T01:47:13;22.00;99.90
5560;DHT22;2803;47.916;8.074;2022-08-27T01:49:40;22.00;99.90
5560;DHT22;2803;47.916;8.074;2022-08-27T01:52:06;21.80;99.90
5560;DHT22;2803;47.916;8.074;2022-08-27T01:54:33;22.00;99.90
5560;DHT22;2803;47.916;8.074;2022-08-27T01:57:00;22.10;99.90
5560;DHT22;2803;47.916;8.074;2022-08-27T01:59:28;22.10;99.90
5560;DHT22;2803;47.916;8.074;2022-08-27T02:01:55;22.00;99.90
5560;DHT22;2803;47.916;8.074;2022-08-27T02:04:22;22.10;99.90
5560;DHT22;2803;47.916;8.074;2022-08-27T02:06:49;22.00;99.90
5560;DHT22;2803;47.916;8.074;2022-08-27T02:09:15;21.90;99.90
5560;DHT22;2803;47.916;8.074;2022-08-27T02:11:42;21.90;99.90
5560;DHT22;2803;47.916;8.074;2022-08-27T02:14:09;22.00;99.90
5560;DHT22;2803;47.916;8.074;2022-08-27T02:16:37;21.80;99.90
5560;DHT22;2803;47.916;8.074;2022-08-27T02:19:04;21.80;99.90
5560;DHT22;2803;47.916;8.074;2022-08-27T02:21:31;21.80;99.90
5560;DHT22;2803;47.916;8.074;2022-08-27T02:23:58;21.80;99.90
5560;DHT22;2803;47.916;8.074;2022-08-27T02:26:25;21.80;99.90
5560;DHT22;2803;47.916;8.074;2022-08-27T02:28:52;21.80;99.90
5560;DHT22;2803;47.916;8.074;2022-08-27T02:31:19;21.90;99.90
5560;DHT22;2803;47.916;8.074;2022-08-27T02:33:48;21.80;99.90
5560;DHT22;2803;47.916;8.074;2022-08-27T02:36:15;21.60;99.90
5560;DHT22;2803;47.916;8.074;2022-08-27T02:38:42;21.70;99.90
5560;DHT22;2803;47.916;8.074;2022-08-27T02:41:09;21.60;99.90
5560;DHT22;2803;47.916;8.074;2022-08-27T02:43:36;21.70;99.90
5560;DHT22;2803;47.916;8.074;2022-08-27T02:46:03;21.60;99.90
5560;DHT22;2803;47.916;8.074;2022-08-27T02:48:29;21.60;99.90
5560;DHT22;2803;47.916;8.074;2022-08-27T02:50:57;21.50;99.90
5560;DHT22;2803;47.916;8.074;2022-08-27T02:53:24;21.50;99.90
5560;DHT22;2803;47.916;8.074;2022-08-27T02:55:52;21.40;99.90
5560;DHT22;2803;47.916;8.074;2022-08-27T02:58:19;21.30;99.90
5560;DHT22;2803;47.916;8.074;2022-08-27T03:00:47;21.40;99.90
5560;DHT22;2803;47.916;8.074;2022-08-27T03:03:13;21.50;99.90
5560;DHT22;2803;47.916;8.074;2022-08-27T03:05:40;21.40;99.90
5560;DHT22;2803;47.916;8.074;2022-08-27T03:08:08;21.50;99.90
5560;DHT22;2803;47.916;8.074;2022-08-27T03:10:36;21.40;99.90
5560;DHT22;2803;47.916;8.074;2022-08-27T03:13:02;21.30;99.90
5560;DHT22;2803;47.916;8.074;2022-08-27T03:15:29;21.20;99.90
5560;DHT22;2803;47.916;8.074;2022-08-27T03:17:55;21.10;99.90
5560;DHT22;2803;47.916;8.074;2022-08-27T03:20:37;21.00;99.90
5560;DHT22;2803;47.916;8.074;2022-08-27T03:23:05;21.00;99.90
5560;DHT22;2803;47.916;8.074;2022-08-27T03:25:33;20.90;99.90
5560;DHT22;2803;47.916;8.074;2022-08-27T03:28:00;20.80;99.90
5560;DHT22;2803;47.916;8.074;2022-08-27T03:30:26;20.80;99.90
5560;DHT22;2803;47.916;8.074;2022-08-27T03:32:53;20.70;99.90
5560;DHT22;2803;47.916;8.074;2022-08-27T03:35:20;20.60;99.90
5560;DHT22;2803;47.916;8.074;2022-08-27T03:37:48;20.70;99.90
5560;DHT22;2803;47.916;8.074;2022-08-27T03:40:15;20.70;99.90
5560;DHT22;2803;47.916;8.074;2022-08-27T03:42:43;20.50;99.90
5560;DHT22;2803;47.916;8.074;2022-08-27T03:45:10;20.50;99.90
5560;DHT22;2803;47.916;8.074;2022-08-27T03:47:37;20.20;99.90
5560;DHT22;2803;47.916;8.074;2022-08-27T03:50:05;20.50;99.90
5560;DHT22;2803;47.916;8.074;2022-08-27T03:52:33;20.60;99.90
5560;DHT22;2803;47.916;8.074;2022-08-27T03:55:00;20.60;99.90
5560;DHT22;2803;47.916;8.074;2022-08-27T03:57:29;20.70;99.90
5560;DHT22;2803;47.916;8.074;2022-08-27T03:59:56;20.80;99.90
5560;DHT22;2803;47.916;8.074;2022-08-27T04:02:23;20.80;99.90
5560;DHT22;2803;47.916;8.074;2022-08-27T04:04:50;20.80;99.90
5560;DHT22;2803;47.916;8.074;2022-08-27T04:07:17;20.70;99.90
5560;DHT22;2803;47.916;8.074;2022-08-27T04:09:44;20.20;99.90
5560;DHT22;2803;47.916;8.074;2022-08-27T04:12:10;20.10;99.90
5560;DHT22;2803;47.916;8.074;2022-08-27T04:14:37;20.20;99.90
5560;DHT22;2803;47.916;8.074;2022-08-27T04:17:05;20.50;99.90
5560;DHT22;2803;47.916;8.074;2022-08-27T04:19:32;20.50;99.90
5560;DHT22;2803;47.916;8.074;2022-08-27T04:22:00;20.50;99.90
5560;DHT22;2803;47.916;8.074;2022-08-27T04:24:28;20.60;99.90
5560;DHT22;2803;47.916;8.074;2022-08-27T04:26:55;20.70;99.90
5560;DHT22;2803;47.916;8.074;2022-08-27T04:29:22;20.70;99.90
5560;DHT22;2803;47.916;8.074;2022-08-27T04:31:49;20.70;99.90
5560;DHT22;2803;47.916;8.074;2022-08-27T04:34:17;20.70;99.90
5560;DHT22;2803;47.916;8.074;2022-08-27T04:36:44;20.80;99.90
5560;DHT22;2803;47.916;8.074;2022-08-27T04:39:11;20.80;99.90
5560;DHT22;2803;47.916;8.074;2022-08-27T04:41:38;20.50;99.90
5560;DHT22;2803;47.916;8.074;2022-08-27T04:44:06;20.60;99.90
5560;DHT22;2803;47.916;8.074;2022-08-27T04:46:35;20.70;99.90
5560;DHT22;2803;47.916;8.074;2022-08-27T04:49:04;20.30;99.90
5560;DHT22;2803;47.916;8.074;2022-08-27T04:51:33;20.30;99.90
5560;DHT22;2803;47.916;8.074;2022-08-27T04:54:00;20.40;99.90
5560;DHT22;2803;47.916;8.074;2022-08-27T04:56:27;20.50;99.90
5560;DHT22;2803;47.916;8.074;2022-08-27T04:58:54;20.60;99.90
5560;DHT22;2803;47.916;8.074;2022-08-27T05:01:23;20.60;99.90
5560;DHT22;2803;47.916;8.074;2022-08-27T05:03:50;20.70;99.90
5560;DHT22;2803;47.916;8.074;2022-08-27T05:06:17;20.70;99.90
5560;DHT22;2803;47.916;8.074;2022-08-27T05:08:47;20.80;99.90
5560;DHT22;2803;47.916;8.074;2022-08-27T05:11:16;20.70;99.90
5560;DHT22;2803;47.916;8.074;2022-08-27T05:13:44;20.70;99.90
5560;DHT22;2803;47.916;8.074;2022-08-27T05:16:13;20.60;99.90
5560;DHT22;2803;47.916;8.074;2022-08-27T05:18:41;20.80;99.90
5560;DHT22;2803;47.916;8.074;2022-08-27T05:21:08;20.80;99.90
5560;DHT22;2803;47.916;8.074;2022-08-27T05:23:35;20.70;99.90
5560;DHT22;2803;47.916;8.074;2022-08-27T05:26:03;20.80;99.90
5560;DHT22;2803;47.916;8.074;2022-08-27T05:28:30;20.50;99.90
5560;DHT22;2803;47.916;8.074;2022-08-27T05:31:03;20.50;99.90
5560;DHT22;2803;47.916;8.074;2022-08-27T05:33:30;20.30;99.90
5560;DHT22;2803;47.916;8.074;2022-08-27T05:35:58;20.60;99.90
5560;DHT22;2803;47.916;8.074;2022-08-27T05:38:27;20.60;99.90
5560;DHT22;2803;47.916;8.074;2022-08-27T05:41:04;20.70;99.90
5560;DHT22;2803;47.916;8.074;2022-08-27T05:43:31;20.60;99.90
5560;DHT22;2803;47.916;8.074;2022-08-27T05:45:58;20.30;99.90
5560;DHT22;2803;47.916;8.074;2022-08-27T05:48:24;20.20;99.90
5560;DHT22;2803;47.916;8.074;2022-08-27T05:50:51;20.50;99.90
5560;DHT22;2803;47.916;8.074;2022-08-27T05:53:18;20.50;99.90
5560;DHT22;2803;47.916;8.074;2022-08-27T05:55:45;20.60;99.90
5560;DHT22;2803;47.916;8.074;2022-08-27T05:58:13;20.70;99.90
5560;DHT22;2803;47.916;8.074;2022-08-27T06:00:54;20.70;99.90
5560;DHT22;2803;47.916;8.074;2022-08-27T06:03:36;20.80;99.90
5560;DHT22;2803;47.916;8.074;2022-08-27T06:06:05;20.60;99.90
5560;DHT22;2803;47.916;8.074;2022-08-27T06:08:33;20.60;99.90
5560;DHT22;2803;47.916;8.074;2022-08-27T06:11:00;20.50;99.90
5560;DHT22;2803;47.916;8.074;2022-08-27T06:13:28;20.50;99.90
5560;DHT22;2803;47.916;8.074;2022-08-27T06:16:00;20.20;99.90
5560;DHT22;2803;47.916;8.074;2022-08-27T06:18:28;20.50;99.90
5560;DHT22;2803;47.916;8.074;2022-08-27T06:20:54;20.70;99.90
5560;DHT22;2803;47.916;8.074;2022-08-27T06:23:21;20.80;99.90
5560;DHT22;2803;47.916;8.074;2022-08-27T06:25:47;20.80;99.90
5560;DHT22;2803;47.916;8.074;2022-08-27T06:28:14;20.90;99.90
5560;DHT22;2803;47.916;8.074;2022-08-27T06:30:42;21.00;99.90
5560;DHT22;2803;47.916;8.074;2022-08-27T06:33:08;21.10;99.90
5560;DHT22;2803;47.916;8.074;2022-08-27T06:35:35;21.20;99.90
5560;DHT22;2803;47.916;8.074;2022-08-27T06:38:02;21.20;99.90
5560;DHT22;2803;47.916;8.074;2022-08-27T06:40:28;21.20;99.90
5560;DHT22;2803;47.916;8.074;2022-08-27T06:42:55;21.30;99.90
5560;DHT22;2803;47.916;8.074;2022-08-27T06:45:22;21.30;99.90
5560;DHT22;2803;47.916;8.074;2022-08-27T06:47:49;21.30;99.90
5560;DHT22;2803;47.916;8.074;2022-08-27T06:50:16;21.40;99.90
5560;DHT22;2803;47.916;8.074;2022-08-27T06:52:44;21.50;99.90
5560;DHT22;2803;47.916;8.074;2022-08-27T06:55:12;21.60;99.90
5560;DHT22;2803;47.916;8.074;2022-08-27T06:57:38;21.60;99.90
5560;DHT22;2803;47.916;8.074;2022-08-27T07:00:06;21.60;99.90
5560;DHT22;2803;47.916;8.074;2022-08-27T07:02:33;21.50;99.90
5560;DHT22;2803;47.916;8.074;2022-08-27T07:05:01;21.30;99.90
5560;DHT22;2803;47.916;8.074;2022-08-27T07:07:28;21.40;99.90
5560;DHT22;2803;47.916;8.074;2022-08-27T07:09:55;21.50;99.90
5560;DHT22;2803;47.916;8.074;2022-08-27T07:12:22;21.50;99.90
5560;DHT22;2803;47.916;8.074;2022-08-27T07:14:50;21.50;99.90
5560;DHT22;2803;47.916;8.074;2022-08-27T07:17:16;21.60;99.90
5560;DHT22;2803;47.916;8.074;2022-08-27T07:19:43;21.60;99.90
5560;DHT22;2803;47.916;8.074;2022-08-27T07:22:12;21.60;99.90
5560;DHT22;2803;47.916;8.074;2022-08-27T07:24:39;21.60;99.90
5560;DHT22;2803;47.916;8.074;2022-08-27T07:27:06;21.60;99.90
5560;DHT22;2803;47.916;8.074;2022-08-27T07:29:33;21.60;99.90
5560;DHT22;2803;47.916;8.074;2022-08-27T07:31:59;21.60;99.90
5560;DHT22;2803;47.916;8.074;2022-08-27T07:34:26;21.70;99.90
5560;DHT22;2803;47.916;8.074;2022-08-27T07:36:53;21.70;99.90
5560;DHT22;2803;47.916;8.074;2022-08-27T07:39:22;21.40;99.90
5560;DHT22;2803;47.916;8.074;2022-08-27T07:41:48;21.60;99.90
5560;DHT22;2803;47.916;8.074;2022-08-27T07:44:29;21.80;99.90
5560;DHT22;2803;47.916;8.074;2022-08-27T07:46:56;21.70;99.90
5560;DHT22;2803;47.916;8.074;2022-08-27T07:49:24;21.80;99.90
5560;DHT22;2803;47.916;8.074;2022-08-27T07:51:50;21.70;99.90
5560;DHT22;2803;47.916;8.074;2022-08-27T07:54:19;21.80;99.90
5560;DHT22;2803;47.916;8.074;2022-08-27T07:56:48;21.80;99.90
5560;DHT22;2803;47.916;8.074;2022-08-27T07:59:15;21.90;99.90
5560;DHT22;2803;47.916;8.074;2022-08-27T08:01:41;22.10;99.90
5560;DHT22;2803;47.916;8.074;2022-08-27T08:04:09;22.00;99.90
5560;DHT22;2803;47.916;8.074;2022-08-27T08:06:36;21.90;99.90
5560;DHT22;2803;47.916;8.074;2022-08-27T08:09:04;22.10;99.90
5560;DHT22;2803;47.916;8.074;2022-08-27T08:11:31;22.10;99.90
5560;DHT22;2803;47.916;8.074;2022-08-27T08:13:59;22.00;99.90
5560;DHT22;2803;47.916;8.074;2022-08-27T08:16:27;22.20;99.90
5560;DHT22;2803;47.916;8.074;2022-08-27T08:18:56;22.20;99.90
5560;DHT22;2803;47.916;8.074;2022-08-27T08:21:24;22.30;99.90
5560;DHT22;2803;47.916;8.074;2022-08-27T08:23:51;22.20;99.90
5560;DHT22;2803;47.916;8.074;2022-08-27T08:26:17;22.40;99.90
5560;DHT22;2803;47.916;8.074;2022-08-27T08:28:44;22.20;99.90
5560;DHT22;2803;47.916;8.074;2022-08-27T08:31:13;22.30;99.90
5560;DHT22;2803;47.916;8.074;2022-08-27T08:33:40;22.50;99.90
5560;DHT22;2803;47.916;8.074;2022-08-27T08:36:09;22.20;99.90
5560;DHT22;2803;47.916;8.074;2022-08-27T08:38:37;22.30;99.90
5560;DHT22;2803;47.916;8.074;2022-08-27T08:41:05;22.50;99.90
5560;DHT22;2803;47.916;8.074;2022-08-27T08:43:35;22.50;99.90
5560;DHT22;2803;47.916;8.074;2022-08-27T08:46:08;22.00;99.90
5560;DHT22;2803;47.916;8.074;2022-08-27T08:48:40;22.30;99.90
5560;DHT22;2803;47.916;8.074;2022-08-27T08:51:12;22.40;99.90
5560;DHT22;2803;47.916;8.074;2022-08-27T08:53:47;22.10;99.90
5560;DHT22;2803;47.916;8.074;2022-08-27T08:56:21;22.40;99.90
5560;DHT22;2803;47.916;8.074;2022-08-27T08:58:52;22.80;99.90
5560;DHT22;2803;47.916;8.074;2022-08-27T09:01:21;23.10;99.90
5560;DHT22;2803;47.916;8.074;2022-08-27T09:03:54;23.10;99.90
5560;DHT22;2803;47.916;8.074;2022-08-27T09:06:31;22.70;99.90
5560;DHT22;2803;47.916;8.074;2022-08-27T09:09:01;23.00;99.90
5560;DHT22;2803;47.916;8.074;2022-08-27T09:11:35;23.20;99.90
5560;DHT22;2803;47.916;8.074;2022-08-27T09:14:17;23.50;99.90
5560;DHT22;2803;47.916;8.074;2022-08-27T09:16:46;23.70;99.90
5560;DHT22;2803;47.916;8.074;2022-08-27T09:19:14;23.40;99.90
5560;DHT22;2803;47.916;8.074;2022-08-27T09:21:49;23.30;99.90
5560;DHT22;2803;47.916;8.074;2022-08-27T09:24:24;23.00;99.90
5560;DHT22;2803;47.916;8.074;2022-08-27T09:26:53;23.20;99.90
5560;DHT22;2803;47.916;8.074;2022-08-27T09:29:19;23.30;99.90
5560;DHT22;2803;47.916;8.074;2022-08-27T09:31:54;23.20;99.90
5560;DHT22;2803;47.916;8.074;2022-08-27T09:34:24;23.10;99.90
5560;DHT22;2803;47.916;8.074;2022-08-27T09:36:57;23.30;99.90
5560;DHT22;2803;47.916;8.074;2022-08-27T09:39:31;23.20;99.90
5560;DHT22;2803;47.916;8.074;2022-08-27T09:41:58;23.10;99.90
5560;DHT22;2803;47.916;8.074;2022-08-27T09:44:24;23.10;99.90
5560;DHT22;2803;47.916;8.074;2022-08-27T09:46:54;23.20;99.90
5560;DHT22;2803;47.916;8.074;2022-08-27T09:49:22;23.20;99.90
5560;DHT22;2803;47.916;8.074;2022-08-27T09:51:49;23.10;99.90
5560;DHT22;2803;47.916;8.074;2022-08-27T09:54:29;23.00;99.90
5560;DHT22;2803;47.916;8.074;2022-08-27T09:56:57;23.20;99.90
5560;DHT22;2803;47.916;8.074;2022-08-27T09:59:27;23.10;99.90
5560;DHT22;2803;47.916;8.074;2022-08-27T10:02:03;23.30;99.90
5560;DHT22;2803;47.916;8.074;2022-08-27T10:04:35;23.50;99.90
5560;DHT22;2803;47.916;8.074;2022-08-27T10:07:17;24.00;99.90
5560;DHT22;2803;47.916;8.074;2022-08-27T10:09:49;24.00;99.90
5560;DHT22;2803;47.916;8.074;2022-08-27T10:12:23;24.00;99.90
5560;DHT22;2803;47.916;8.074;2022-08-27T10:14:53;24.30;99.90
5560;DHT22;2803;47.916;8.074;2022-08-27T10:17:29;24.60;99.90
5560;DHT22;2803;47.916;8.074;2022-08-27T10:20:05;24.30;99.90
5560;DHT22;2803;47.916;8.074;2022-08-27T10:22:42;24.60;99.90
5560;DHT22;2803;47.916;8.074;2022-08-27T10:25:20;24.90;99.90
5560;DHT22;2803;47.916;8.074;2022-08-27T10:28:00;25.10;99.90
5560;DHT22;2803;47.916;8.074;2022-08-27T10:30:41;24.80;99.90
5560;DHT22;2803;47.916;8.074;2022-08-27T10:33:15;24.90;99.90
5560;DHT22;2803;47.916;8.074;2022-08-27T10:35:49;24.70;99.90
5560;DHT22;2803;47.916;8.074;2022-08-27T10:38:21;24.70;99.90
5560;DHT22;2803;47.916;8.074;2022-08-27T10:40:55;24.80;99.90
5560;DHT22;2803;47.916;8.074;2022-08-27T10:43:42;24.70;99.90
5560;DHT22;2803;47.916;8.074;2022-08-27T10:46:35;24.90;99.90
5560;DHT22;2803;47.916;8.074;2022-08-27T10:49:09;24.80;99.90
5560;DHT22;2803;47.916;8.074;2022-08-27T10:51:46;24.30;99.90
5560;DHT22;2803;47.916;8.074;2022-08-27T10:54:23;24.30;99.90
5560;DHT22;2803;47.916;8.074;2022-08-27T10:56:54;23.90;99.90
5560;DHT22;2803;47.916;8.074;2022-08-27T10:59:28;23.90;99.90
5560;DHT22;2803;47.916;8.074;2022-08-27T11:02:06;24.00;99.90
5560;DHT22;2803;47.916;8.074;2022-08-27T11:04:38;23.90;99.90
5560;DHT22;2803;47.916;8.074;2022-08-27T11:07:12;24.00;99.90
5560;DHT22;2803;47.916;8.074;2022-08-27T11:09:46;24.20;99.90
5560;DHT22;2803;47.916;8.074;2022-08-27T11:12:17;24.20;99.90
5560;DHT22;2803;47.916;8.074;2022-08-27T11:14:48;24.40;99.90
5560;DHT22;2803;47.916;8.074;2022-08-27T11:17:19;24.10;99.90
5560;DHT22;2803;47.916;8.074;2022-08-27T11:19:52;23.90;99.90
5560;DHT22;2803;47.916;8.074;2022-08-27T11:22:27;23.90;99.90
5560;DHT22;2803;47.916;8.074;2022-08-27T11:24:58;24.20;99.90
5560;DHT22;2803;47.916;8.074;2022-08-27T11:27:29;24.40;99.90
5560;DHT22;2803;47.916;8.074;2022-08-27T11:30:02;24.80;99.90
5560;DHT22;2803;47.916;8.074;2022-08-27T11:32:36;25.00;99.90
5560;DHT22;2803;47.916;8.074;2022-08-27T11:35:11;24.80;99.90
5560;DHT22;2803;47.916;8.074;2022-08-27T11:37:58;24.60;99.90
5560;DHT22;2803;47.916;8.074;2022-08-27T11:40:38;24.80;99.90
5560;DHT22;2803;47.916;8.074;2022-08-27T11:43:09;25.00;99.90
5560;DHT22;2803;47.916;8.074;2022-08-27T11:45:49;25.10;99.90
5560;DHT22;2803;47.916;8.074;2022-08-27T11:48:22;24.50;99.90
5560;DHT22;2803;47.916;8.074;2022-08-27T11:50:54;24.90;99.90
5560;DHT22;2803;47.916;8.074;2022-08-27T11:53:27;24.90;99.90
5560;DHT22;2803;47.916;8.074;2022-08-27T11:55:54;24.90;99.90
5560;DHT22;2803;47.916;8.074;2022-08-27T11:58:26;25.10;99.90
5560;DHT22;2803;47.916;8.074;2022-08-27T12:00:53;25.00;99.90
5560;DHT22;2803;47.916;8.074;2022-08-27T12:03:26;25.00;99.90
5560;DHT22;2803;47.916;8.074;2022-08-27T12:06:09;25.00;99.90
5560;DHT22;2803;47.916;8.074;2022-08-27T12:08:44;25.00;99.90
5560;DHT22;2803;47.916;8.074;2022-08-27T12:11:18;25.00;99.90
5560;DHT22;2803;47.916;8.074;2022-08-27T12:13:54;25.00;99.90
5560;DHT22;2803;47.916;8.074;2022-08-27T12:16:29;25.00;99.90
5560;DHT22;2803;47.916;8.074;2022-08-27T12:19:06;25.00;99.90
5560;DHT22;2803;47.916;8.074;2022-08-27T12:21:44;25.10;99.90
5560;DHT22;2803;47.916;8.074;2022-08-27T12:24:25;25.20;99.90
5560;DHT22;2803;47.916;8.074;2022-08-27T12:26:58;25.10;99.90
5560;DHT22;2803;47.916;8.074;2022-08-27T12:29:31;25.10;99.90
5560;DHT22;2803;47.916;8.074;2022-08-27T12:32:04;24.80;99.90
5560;DHT22;2803;47.916;8.074;2022-08-27T12:34:42;24.60;99.90
5560;DHT22;2803;47.916;8.074;2022-08-27T12:37:10;24.80;99.90
5560;DHT22;2803;47.916;8.074;2022-08-27T12:39:42;24.80;99.90
5560;DHT22;2803;47.916;8.074;2022-08-27T12:42:16;24.80;99.90
5560;DHT22;2803;47.916;8.074;2022-08-27T12:44:43;24.80;99.90
5560;DHT22;2803;47.916;8.074;2022-08-27T12:47:11;24.80;99.90
5560;DHT22;2803;47.916;8.074;2022-08-27T12:49:44;24.80;99.90
5560;DHT22;2803;47.916;8.074;2022-08-27T12:52:18;24.50;99.90
5560;DHT22;2803;47.916;8.074;2022-08-27T12:55:02;24.50;99.90
5560;DHT22;2803;47.916;8.074;2022-08-27T12:57:36;24.30;99.90
5560;DHT22;2803;47.916;8.074;2022-08-27T13:00:10;23.70;99.90
5560;DHT22;2803;47.916;8.074;2022-08-27T13:02:51;23.60;99.90
5560;DHT22;2803;47.916;8.074;2022-08-27T13:05:22;23.30;99.90
5560;DHT22;2803;47.916;8.074;2022-08-27T13:07:50;23.10;99.90
5560;DHT22;2803;47.916;8.074;2022-08-27T13:10:20;23.10;99.90
5560;DHT22;2803;47.916;8.074;2022-08-27T13:13:01;23.10;99.90
5560;DHT22;2803;47.916;8.074;2022-08-27T13:15:28;23.20;99.90
5560;DHT22;2803;47.916;8.074;2022-08-27T13:17:55;23.10;99.90
5560;DHT22;2803;47.916;8.074;2022-08-27T13:20:24;23.00;99.90
5560;DHT22;2803;47.916;8.074;2022-08-27T13:22:52;23.10;99.90
5560;DHT22;2803;47.916;8.074;2022-08-27T13:25:23;23.50;99.90
5560;DHT22;2803;47.916;8.074;2022-08-27T13:27:53;23.60;99.90
5560;DHT22;2803;47.916;8.074;2022-08-27T13:30:21;23.80;99.90
5560;DHT22;2803;47.916;8.074;2022-08-27T13:32:49;23.70;99.90
5560;DHT22;2803;47.916;8.074;2022-08-27T13:35:18;23.90;99.90
5560;DHT22;2803;47.916;8.074;2022-08-27T13:37:48;24.00;99.90
5560;DHT22;2803;47.916;8.074;2022-08-27T13:40:25;24.40;99.90
5560;DHT22;2803;47.916;8.074;2022-08-27T13:42:54;24.40;99.90
5560;DHT22;2803;47.916;8.074;2022-08-27T13:45:21;24.20;99.90
5560;DHT22;2803;47.916;8.074;2022-08-27T13:47:48;24.30;99.90
5560;DHT22;2803;47.916;8.074;2022-08-27T13:50:20;24.20;99.90
5560;DHT22;2803;47.916;8.074;2022-08-27T13:52:48;24.10;99.90
5560;DHT22;2803;47.916;8.074;2022-08-27T13:55:30;24.30;99.90
5560;DHT22;2803;47.916;8.074;2022-08-27T13:57:57;24.10;99.90
5560;DHT22;2803;47.916;8.074;2022-08-27T14:00:26;24.40;99.90
5560;DHT22;2803;47.916;8.074;2022-08-27T14:02:54;24.50;99.90
5560;DHT22;2803;47.916;8.074;2022-08-27T14:05:28;24.50;99.90
5560;DHT22;2803;47.916;8.074;2022-08-27T14:07:58;24.30;99.90
5560;DHT22;2803;47.916;8.074;2022-08-27T14:10:32;24.30;99.90
5560;DHT22;2803;47.916;8.074;2022-08-27T14:13:01;24.30;99.90
5560;DHT22;2803;47.916;8.074;2022-08-27T14:15:31;24.30;99.90
5560;DHT22;2803;47.916;8.074;2022-08-27T14:17:59;24.10;99.90
5560;DHT22;2803;47.916;8.074;2022-08-27T14:20:26;24.10;99.90
5560;DHT22;2803;47.916;8.074;2022-08-27T14:22:53;24.20;99.90
5560;DHT22;2803;47.916;8.074;2022-08-27T14:25:20;24.20;99.90
5560;DHT22;2803;47.916;8.074;2022-08-27T14:27:50;24.10;99.90
5560;DHT22;2803;47.916;8.074;2022-08-27T14:30:19;24.20;99.90
5560;DHT22;2803;47.916;8.074;2022-08-27T14:32:46;24.30;99.90
5560;DHT22;2803;47.916;8.074;2022-08-27T14:35:14;24.20;99.90
5560;DHT22;2803;47.916;8.074;2022-08-27T14:37:42;24.20;99.90
5560;DHT22;2803;47.916;8.074;2022-08-27T14:40:10;24.00;99.90
5560;DHT22;2803;47.916;8.074;2022-08-27T14:42:37;23.90;99.90
5560;DHT22;2803;47.916;8.074;2022-08-27T14:45:06;24.00;99.90
5560;DHT22;2803;47.916;8.074;2022-08-27T14:47:35;23.80;99.90
5560;DHT22;2803;47.916;8.074;2022-08-27T14:50:03;23.40;99.90
5560;DHT22;2803;47.916;8.074;2022-08-27T14:52:30;22.50;99.90
5560;DHT22;2803;47.916;8.074;2022-08-27T14:54:56;21.80;99.90
5560;DHT22;2803;47.916;8.074;2022-08-27T14:57:23;22.10;99.90
5560;DHT22;2803;47.916;8.074;2022-08-27T14:59:49;22.20;99.90
5560;DHT22;2803;47.916;8.074;2022-08-27T15:02:18;22.40;99.90
5560;DHT22;2803;47.916;8.074;2022-08-27T15:04:47;22.80;99.90
5560;DHT22;2803;47.916;8.074;2022-08-27T15:07:14;23.20;99.90
5560;DHT22;2803;47.916;8.074;2022-08-27T15:09:40;22.50;99.90
5560;DHT22;2803;47.916;8.074;2022-08-27T15:12:08;22.70;99.90
5560;DHT22;2803;47.916;8.074;2022-08-27T15:14:36;22.90;99.90
5560;DHT22;2803;47.916;8.074;2022-08-27T15:17:03;23.00;99.90
5560;DHT22;2803;47.916;8.074;2022-08-27T15:19:32;22.80;99.90
5560;DHT22;2803;47.916;8.074;2022-08-27T15:22:03;23.10;99.90
5560;DHT22;2803;47.916;8.074;2022-08-27T15:24:36;23.00;99.90
5560;DHT22;2803;47.916;8.074;2022-08-27T15:27:04;22.50;99.90
5560;DHT22;2803;47.916;8.074;2022-08-27T15:29:31;21.90;99.90
5560;DHT22;2803;47.916;8.074;2022-08-27T15:31:57;21.70;99.90
5560;DHT22;2803;47.916;8.074;2022-08-27T15:34:24;21.80;99.90
5560;DHT22;2803;47.916;8.074;2022-08-27T15:36:52;22.00;99.90
5560;DHT22;2803;47.916;8.074;2022-08-27T15:39:18;21.80;99.90
5560;DHT22;2803;47.916;8.074;2022-08-27T15:41:45;21.90;99.90
5560;DHT22;2803;47.916;8.074;2022-08-27T15:44:12;22.10;99.90
5560;DHT22;2803;47.916;8.074;2022-08-27T15:46:39;22.10;99.90
5560;DHT22;2803;47.916;8.074;2022-08-27T15:49:07;22.00;99.90
5560;DHT22;2803;47.916;8.074;2022-08-27T15:51:34;22.10;99.90
5560;DHT22;2803;47.916;8.074;2022-08-27T15:54:02;22.20;99.90
5560;DHT22;2803;47.916;8.074;2022-08-27T15:56:29;22.20;99.90
5560;DHT22;2803;47.916;8.074;2022-08-27T15:58:55;22.60;99.90
5560;DHT22;2803;47.916;8.074;2022-08-27T16:01:26;22.80;99.90
5560;DHT22;2803;47.916;8.074;2022-08-27T16:03:54;22.90;99.90
5560;DHT22;2803;47.916;8.074;2022-08-27T16:06:22;22.70;99.90
5560;DHT22;2803;47.916;8.074;2022-08-27T16:08:49;22.30;99.90
5560;DHT22;2803;47.916;8.074;2022-08-27T16:11:17;22.50;99.90
5560;DHT22;2803;47.916;8.074;2022-08-27T16:13:43;22.40;99.90
5560;DHT22;2803;47.916;8.074;2022-08-27T16:16:11;22.20;99.90